createdAt,value
2022-09-07T00:01:22.811Z,4.72
2022-09-07T00:05:25.037Z,5.18
2022-09-07T00:09:27.188Z,2.60
2022-09-07T00:13:32.211Z,7.05
2022-09-07T00:17:34.727Z,3.65
2022-09-07T00:21:37.065Z,4.43
2022-09-07T00:25:40.410Z,6.40
2022-09-07T00:29:42.555Z,7.80
2022-09-07T00:33:45.655Z,2.92
2022-09-07T00:37:47.767Z,3.08
2022-09-07T00:41:49.892Z,3.88
2022-09-07T00:45:52.096Z,2.20
2022-09-07T00:50:00.611Z,1.80
2022-09-07T00:54:33.060Z,1.85
2022-09-07T00:58:37.429Z,2.20
2022-09-07T01:02:40.276Z,3.25
2022-09-07T01:06:43.519Z,4.33
2022-09-07T01:10:46.929Z,5.30
2022-09-07T01:14:57.672Z,2.25
2022-09-07T01:19:36.113Z,2.53
2022-09-07T01:24:02.494Z,3.83
2022-09-07T01:28:41.133Z,2.75
2022-09-07T01:33:19.941Z,4.50
2022-09-07T01:37:36.779Z,4.22
2022-09-07T01:41:47.168Z,3.20
2022-09-07T01:45:51.718Z,4.13
2022-09-07T01:50:09.255Z,3.92
2022-09-07T01:54:18.539Z,2.03
2022-09-07T01:58:26.579Z,3.25
2022-09-07T02:02:33.338Z,3.03
2022-09-07T02:06:54.109Z,5.25
2022-09-07T02:11:14.715Z,2.72
2022-09-07T02:15:41.840Z,3.35
2022-09-07T02:19:54.801Z,2.35
2022-09-07T02:24:06.424Z,6.47
2022-09-07T02:28:12.777Z,4.65
2022-09-07T02:32:14.981Z,4.63
2022-09-07T02:36:21.955Z,5.32
2022-09-07T02:40:24.128Z,5.20
2022-09-07T02:44:32.541Z,4.43
2022-09-07T02:49:00.666Z,3.35
2022-09-07T02:53:27.964Z,4.70
2022-09-07T02:58:12.466Z,3.45
2022-09-07T03:02:28.901Z,3.92
2022-09-07T03:06:37.009Z,4.80
2022-09-07T03:10:40.359Z,2.63
2022-09-07T03:14:43.681Z,3.03
2022-09-07T03:18:45.748Z,4.13
2022-09-07T03:22:49.752Z,2.38
2022-09-07T03:26:52.002Z,2.22
2022-09-07T03:30:54.123Z,1.98
2022-09-07T03:34:56.315Z,4.50
2022-09-07T03:38:59.424Z,3.42
2022-09-07T03:43:01.602Z,2.42
2022-09-07T03:47:03.700Z,3.55
2022-09-07T03:51:11.025Z,3.63
2022-09-07T03:55:14.893Z,4.20
2022-09-07T03:59:16.957Z,4.95
2022-09-07T04:03:19.102Z,2.38
2022-09-07T04:07:21.294Z,4.03
2022-09-07T04:11:23.763Z,8.38
2022-09-07T04:15:25.942Z,11.63
2022-09-07T04:19:29.237Z,4.15
2022-09-07T04:23:52.243Z,3.50
2022-09-07T04:27:59.086Z,4.72
2022-09-07T04:32:01.277Z,2.30
2022-09-07T04:36:04.043Z,5.63
2022-09-07T04:40:06.633Z,7.10
2022-09-07T04:44:13.609Z,8.38
2022-09-07T04:48:18.284Z,3.65
2022-09-07T04:52:23.771Z,2.33
2022-09-07T04:56:26.609Z,5.13
2022-09-07T05:00:29.065Z,3.50
2022-09-07T05:04:31.233Z,8.80
2022-09-07T05:08:44.834Z,6.00
2022-09-07T05:12:47.243Z,3.87
2022-09-07T05:16:49.687Z,4.05
2022-09-07T05:20:51.770Z,4.70
2022-09-07T05:24:53.790Z,6.05
2022-09-07T05:37:58.684Z,6.25
2022-09-07T05:42:00.949Z,4.15
2022-09-07T05:46:03.255Z,4.90
2022-09-07T05:50:06.764Z,5.53
2022-09-07T05:54:10.959Z,4.57
2022-09-07T06:02:15.966Z,3.47
2022-09-07T06:06:21.769Z,2.70
2022-09-07T06:14:46.588Z,7.03
2022-09-07T06:18:50.394Z,3.03
2022-09-07T06:22:52.499Z,7.23
2022-09-07T06:26:54.741Z,4.10
2022-09-07T06:31:04.983Z,4.75
2022-09-07T06:35:07.405Z,6.10
2022-09-07T06:39:10.260Z,3.85
2022-09-07T06:43:27.221Z,2.38
2022-09-07T06:47:33.045Z,4.57
2022-09-07T06:51:35.091Z,4.68
2022-09-07T06:55:44.117Z,6.55
2022-09-07T06:59:46.184Z,3.10
2022-09-07T07:03:48.394Z,4.30
2022-09-07T07:07:50.453Z,5.07
2022-09-07T07:11:52.504Z,4.82
2022-09-07T07:16:05.232Z,4.07
2022-09-07T07:20:08.079Z,2.55
2022-09-07T07:24:10.271Z,5.35
2022-09-07T07:32:34.618Z,5.55
2022-09-07T07:36:36.714Z,1.75
2022-09-07T07:40:39.788Z,2.78
2022-09-07T07:44:42.128Z,6.28
2022-09-07T07:48:48.246Z,9.82
2022-09-07T07:52:50.657Z,8.27
2022-09-07T07:57:12.495Z,6.20
2022-09-07T08:01:18.129Z,7.15
2022-09-07T08:05:20.246Z,1.52
2022-09-07T08:09:22.359Z,4.43
2022-09-07T08:13:24.449Z,4.55
2022-09-07T08:17:26.819Z,4.47
2022-09-07T08:21:28.802Z,4.60
2022-09-07T08:25:30.840Z,4.70
2022-09-07T08:29:35.222Z,3.50
2022-09-07T08:33:38.468Z,2.38
2022-09-07T08:37:40.699Z,2.85
2022-09-07T08:41:42.680Z,3.50
2022-09-07T08:45:49.241Z,4.28
2022-09-07T08:50:07.186Z,6.22
2022-09-07T08:54:14.254Z,2.72
2022-09-07T08:58:52.766Z,5.95
2022-09-07T09:08:18.662Z,3.17
2022-09-07T09:12:52.296Z,4.05
2022-09-07T09:17:00.303Z,2.53
2022-09-07T09:21:02.626Z,4.72
2022-09-07T09:25:21.551Z,2.95
2022-09-07T09:29:23.709Z,2.45
2022-09-07T09:33:29.065Z,2.92
2022-09-07T09:37:36.431Z,6.70
2022-09-07T09:41:39.389Z,5.47
2022-09-07T09:54:52.239Z,7.82
2022-09-07T10:03:59.382Z,7.45
2022-09-07T10:08:20.865Z,6.15
2022-09-07T10:12:30.051Z,6.13
2022-09-07T10:16:40.418Z,4.25
2022-09-07T10:20:42.421Z,5.95
2022-09-07T10:24:44.860Z,9.30
2022-09-07T10:38:25.373Z,6.38
2022-09-07T10:42:40.067Z,8.95
2022-09-07T10:46:57.031Z,8.20
2022-09-07T10:51:13.383Z,11.65
2022-09-07T10:55:28.037Z,5.75
2022-09-07T11:04:17.195Z,10.43
2022-09-07T11:09:14.959Z,8.10
2022-09-07T11:13:00.328Z,7.07
2022-09-07T11:17:08.329Z,13.50
2022-09-07T11:21:56.022Z,6.72
2022-09-07T11:25:59.025Z,5.97
2022-09-07T11:30:13.879Z,8.77
2022-09-07T11:34:25.880Z,7.25
2022-09-07T11:38:28.105Z,8.88
2022-09-07T11:42:43.893Z,9.20
2022-09-07T11:47:00.291Z,10.23
2022-09-07T11:51:23.454Z,6.53
2022-09-07T11:55:39.926Z,8.40
2022-09-07T11:59:54.375Z,9.38
2022-09-07T12:04:25.850Z,5.15
2022-09-07T12:08:49.523Z,9.18
2022-09-07T12:13:28.497Z,3.92
2022-09-07T12:18:04.630Z,7.22
2022-09-07T12:22:21.472Z,9.40
2022-09-07T12:26:38.100Z,8.45
2022-09-07T12:30:41.866Z,10.65
2022-09-07T12:34:58.061Z,7.88
2022-09-07T12:39:06.290Z,7.60
2022-09-07T12:43:14.553Z,8.98
2022-09-07T12:47:16.647Z,12.10
2022-09-07T12:56:16.543Z,8.52
2022-09-07T13:00:25.526Z,9.52
2022-09-07T13:04:58.330Z,11.30
2022-09-07T13:09:18.507Z,9.05
2022-09-07T13:17:56.440Z,5.80
2022-09-07T13:21:58.743Z,7.10
2022-09-07T13:26:02.466Z,5.43
2022-09-07T13:30:16.675Z,6.75
2022-09-07T13:34:34.323Z,7.40
2022-09-07T13:38:40.551Z,7.85
2022-09-07T13:42:45.106Z,14.73
2022-09-07T13:47:21.063Z,6.38
2022-09-07T13:51:32.042Z,8.30
2022-09-07T13:55:44.250Z,4.47
2022-09-07T13:59:50.365Z,7.25
2022-09-07T14:03:55.896Z,8.60
2022-09-07T14:07:58.116Z,7.55
2022-09-07T14:12:00.981Z,5.97
2022-09-07T14:16:03.411Z,6.70
2022-09-07T14:24:27.805Z,5.45
2022-09-07T14:28:32.406Z,3.70
2022-09-07T14:32:34.506Z,7.57
2022-09-07T14:36:45.769Z,7.53
2022-09-07T14:40:48.638Z,9.55
2022-09-07T14:44:53.362Z,4.38
2022-09-07T14:49:01.795Z,9.65
2022-09-07T14:57:32.655Z,10.77
2022-09-07T15:01:38.919Z,5.60
2022-09-07T15:05:48.781Z,9.30
2022-09-07T15:09:50.922Z,10.65
2022-09-07T15:14:19.738Z,9.23
2022-09-07T15:18:47.610Z,11.63
2022-09-07T15:22:49.603Z,9.38
2022-09-07T15:27:02.461Z,5.90
2022-09-07T15:35:36.668Z,6.22
2022-09-07T15:40:11.675Z,18.25
2022-09-07T15:44:15.238Z,32.20
2022-09-07T15:48:22.431Z,21.65
2022-09-07T15:52:24.755Z,13.98
2022-09-07T15:56:29.101Z,16.30
2022-09-07T16:00:34.298Z,8.68
2022-09-07T16:04:38.833Z,8.35
2022-09-07T16:08:41.455Z,12.70
2022-09-07T16:13:01.998Z,9.13
2022-09-07T16:21:28.029Z,8.33
2022-09-07T16:25:30.048Z,8.85
2022-09-07T16:29:36.717Z,8.10
2022-09-07T16:33:38.932Z,6.45
2022-09-07T16:38:43.615Z,9.18
2022-09-07T16:42:03.358Z,9.60
2022-09-07T16:46:08.489Z,8.85
2022-09-07T16:50:10.575Z,9.75
2022-09-07T16:54:13.922Z,7.93
2022-09-07T17:02:37.916Z,6.57
2022-09-07T17:06:40.690Z,5.40
2022-09-07T17:10:42.936Z,10.75
2022-09-07T17:14:44.884Z,11.18
2022-09-07T17:23:09.875Z,8.57
2022-09-07T17:27:13.346Z,22.00
2022-09-07T17:35:41.954Z,5.53
2022-09-07T17:39:44.543Z,13.18
2022-09-07T17:43:48.429Z,14.63
2022-09-07T17:51:52.466Z,12.27
2022-09-07T17:55:54.650Z,8.30
2022-09-07T18:00:12.407Z,6.72
2022-09-07T18:04:15.213Z,9.73
2022-09-07T18:08:17.266Z,10.15
2022-09-07T18:12:19.264Z,7.95
2022-09-07T18:16:24.712Z,10.05
2022-09-07T18:20:26.990Z,8.68
2022-09-07T18:24:29.104Z,13.20
2022-09-07T18:32:58.349Z,8.38
2022-09-07T18:37:01.627Z,13.48
2022-09-07T18:41:09.408Z,12.27
2022-09-07T18:45:27.527Z,13.88
2022-09-07T18:49:30.063Z,15.27
2022-09-07T18:53:32.939Z,10.25
2022-09-07T18:57:36.560Z,10.33
2022-09-07T19:01:39.298Z,11.77
2022-09-07T19:05:56.962Z,20.77
2022-09-07T19:09:59.096Z,14.43
2022-09-07T19:14:05.630Z,13.93
2022-09-07T19:18:08.100Z,15.63
2022-09-07T19:22:11.701Z,12.70
2022-09-07T19:26:14.901Z,12.65
2022-09-07T19:30:17.796Z,18.15
2022-09-07T19:34:20.739Z,9.27
2022-09-07T19:38:23.247Z,9.60
2022-09-07T19:42:25.720Z,8.10
2022-09-07T19:46:27.966Z,8.25
2022-09-07T19:50:32.426Z,10.00
2022-09-07T19:54:36.354Z,9.88
2022-09-07T20:02:42.117Z,7.60
2022-09-07T20:06:44.423Z,9.23
2022-09-07T20:10:46.666Z,13.82
2022-09-07T20:14:49.036Z,5.78
2022-09-07T20:18:52.099Z,6.75
2022-09-07T20:22:54.530Z,6.87
2022-09-07T20:26:56.555Z,10.40
2022-09-07T20:30:58.624Z,7.70
2022-09-07T20:35:01.807Z,8.20
2022-09-07T20:39:04.719Z,12.05
2022-09-07T20:43:06.822Z,10.02
2022-09-07T20:47:08.880Z,10.90
2022-09-07T20:51:16.015Z,4.85
2022-09-07T20:55:20.813Z,11.80
2022-09-07T20:59:24.110Z,9.43
2022-09-07T21:03:26.744Z,8.50
2022-09-07T21:07:28.959Z,12.88
2022-09-07T21:11:35.503Z,10.00
2022-09-07T21:15:43.113Z,8.15
2022-09-07T21:19:45.458Z,10.10
2022-09-07T21:23:48.171Z,10.27
2022-09-07T21:27:50.681Z,11.77
2022-09-07T21:31:54.345Z,5.85
2022-09-07T21:35:56.787Z,7.97
2022-09-07T21:39:58.873Z,6.45
2022-09-07T21:44:03.455Z,6.70
2022-09-07T21:48:05.859Z,6.43
2022-09-07T21:52:08.579Z,10.40
2022-09-07T21:56:13.401Z,8.73
2022-09-07T22:00:16.333Z,8.80
2022-09-07T22:04:18.616Z,6.13
2022-09-07T22:08:20.843Z,16.08
2022-09-07T22:12:22.826Z,5.03
2022-09-07T22:16:25.380Z,7.22
2022-09-07T22:20:27.370Z,8.80
2022-09-07T22:24:29.815Z,8.55
2022-09-07T22:28:32.456Z,8.35
2022-09-07T22:32:34.433Z,7.20
2022-09-07T22:36:39.819Z,9.85
2022-09-07T22:40:42.227Z,7.75
2022-09-07T22:44:44.225Z,7.72
2022-09-07T22:48:46.955Z,5.18
2022-09-07T22:52:49.069Z,8.77
2022-09-07T22:56:51.049Z,10.23
2022-09-07T23:00:53.189Z,11.15
2022-09-07T23:04:57.225Z,6.85
2022-09-07T23:09:03.541Z,8.68
2022-09-07T23:13:05.579Z,6.97
2022-09-07T23:17:07.678Z,6.32
2022-09-07T23:21:10.450Z,10.65
2022-09-07T23:25:13.063Z,8.25
2022-09-07T23:29:16.002Z,8.07
2022-09-07T23:33:18.388Z,8.95
2022-09-07T23:37:20.521Z,9.48
2022-09-07T23:41:23.581Z,7.90
2022-09-07T23:45:25.727Z,8.93
2022-09-07T23:49:28.062Z,16.67
2022-09-07T23:53:30.046Z,7.75
2022-09-07T23:57:32.370Z,10.23
